Wink, TX

12:22 AM CDT on August 25, 2016 (GMT -0500)
Winkler County | | Change Station

Elev 2822 ft 31.78 °N, 103.20 °W | Updated 29 minutes ago

Clear
Clear
69 °F
Feels Like 69 °F
N
8
Wind Variable Wind from SE

Today
High -- | Low -- °F
--% Chance of Precip.
Yesterday
High -- | Low -- °F
Precip. -- in
Pressure 29.97 in
Visibility 10.0 miles
Clouds Clear
Dew Point 66 °F
Humidity 90%
Rainfall 0.17 in
Snow Depth Not available.
7:24 AM 8:24 PM
Waning Gibbous, 49% visible
METAR KINK 250453Z AUTO 13007KT 10SM CLR 21/19 A3008 RMK AO2 SLP148 T02060189 TSNO $
Pressure 29.97 in
Visibility 10.0 miles
Clouds Clear
Dew Point 66 °F
Humidity 90%
Rainfall 0.17 in
Snow Depth Not available.
7:24 AM 8:24 PM
Waning Gibbous, 49% visible
METAR KINK 250453Z AUTO 13007KT 10SM CLR 21/19 A3008 RMK AO2 SLP148 T02060189 TSNO $

10-Day Weather Forecast

Almanac

Astronomy

Aug. 25, 2016 Rise Set
Actual Time
Civil Twilight
Nautical Twilight
Astronomical Twilight
Moon
Length of Visible Light
Length of Day
Tomorrow will be .
, % of the Moon is Illuminated

Today's Extremes

State Highs State Lows

Community

WunderPhotos

Upload Photos

1,934,799 photos uploaded!

WunderBlog® & News

Nearby

Air Quality

  Air Quality AQ Index Pollutant
Not available.

Snow Depth

Station Depth Elevation

Earthquake Activity

City Distance Mag. Time & Date
Minimum magnitude displayed is 2.5.

Coastal Water Temperatures

Place Temperature

Stations

Nearby Weather Stations

Station Location Temp. Windchill Dew Point Humidity Wind Precip. Elev Updated Type
                   

Watches & Warnings

There are currently no watches in effect.